METAR Data
IDs: Format: Raw Decoded Include TAF

Data at: 1831 UTC 26 Sep 2021

LEBB 261800Z 06004KT CAVOK 22/17 Q1018 NOSIG